createdAt,value
2023-04-07T00:00:46.739Z,96115.25
2023-04-07T00:01:48.892Z,96118.66
2023-04-07T00:02:53.740Z,96114.34
2023-04-07T00:03:56.530Z,96118.56
2023-04-07T00:05:03.225Z,96118.72
2023-04-07T00:06:05.767Z,96116.16
2023-04-07T00:07:10.748Z,96120.31
2023-04-07T00:08:12.834Z,96117.84
2023-04-07T00:09:17.509Z,96120.41
2023-04-07T00:10:19.607Z,96120.31
2023-04-07T00:11:24.345Z,96122.88
2023-04-07T00:12:26.574Z,96119.31
2023-04-07T00:13:31.416Z,96108.19
2023-04-07T00:14:33.588Z,96114.16
2023-04-07T00:15:38.279Z,96111.75
2023-04-07T00:16:43.023Z,96109.22
2023-04-07T00:17:47.753Z,96117.81
2023-04-07T00:18:49.856Z,96111.88
2023-04-07T00:19:54.590Z,96119.56
2023-04-07T00:20:57.198Z,96111.00
2023-04-07T00:22:02.059Z,96112.69
2023-04-07T00:23:14.761Z,96114.34
2023-04-07T00:24:27.407Z,96108.34
2023-04-07T00:25:33.546Z,96100.72
2023-04-07T00:26:38.204Z,96104.06
2023-04-07T00:27:40.471Z,96096.25
2023-04-07T00:28:45.181Z,96097.88
2023-04-07T00:29:47.237Z,96097.81
2023-04-07T00:30:51.906Z,96086.47
2023-04-07T00:31:56.747Z,96094.19
2023-04-07T00:33:01.420Z,96087.44
2023-04-07T00:34:03.606Z,96092.56
2023-04-07T00:35:09.277Z,96084.56
2023-04-07T00:36:11.507Z,96087.22
2023-04-07T00:37:16.256Z,96082.88
2023-04-07T00:38:18.318Z,96081.13
2023-04-07T00:39:23.977Z,96077.75
2023-04-07T00:40:26.364Z,96077.03
2023-04-07T00:41:31.029Z,96080.50
2023-04-07T00:42:33.878Z,96076.22
2023-04-07T00:43:38.519Z,96071.78
2023-04-07T00:44:40.752Z,96071.78
2023-04-07T00:45:45.512Z,96067.59
2023-04-07T00:46:48.671Z,96071.28
2023-04-07T00:47:56.181Z,96067.66
2023-04-07T00:48:58.293Z,96068.41
2023-04-07T00:50:03.028Z,96065.03
2023-04-07T00:51:07.085Z,96061.63
2023-04-07T00:52:13.832Z,96067.69
2023-04-07T00:53:16.467Z,96064.38
2023-04-07T00:54:22.022Z,96066.03
2023-04-07T00:55:24.237Z,96065.94
2023-04-07T00:56:29.031Z,96058.34
2023-04-07T00:57:31.189Z,96054.00
2023-04-07T00:58:36.171Z,96057.22
2023-04-07T00:59:38.838Z,96048.84
2023-04-07T01:01:25.807Z,96048.47
2023-04-07T01:02:41.637Z,96046.28
2023-04-07T01:06:23.748Z,96036.28
2023-04-07T01:08:09.179Z,96040.59
2023-04-07T01:09:28.361Z,96034.75
2023-04-07T01:10:38.054Z,96034.88
2023-04-07T01:11:48.623Z,96036.63
2023-04-07T01:12:57.579Z,96036.44
2023-04-07T01:14:03.728Z,96033.91
2023-04-07T01:15:10.129Z,96027.16
2023-04-07T01:16:19.636Z,96022.13
2023-04-07T01:17:26.085Z,96022.25
2023-04-07T01:18:35.292Z,96022.16
2023-04-07T01:19:43.673Z,96023.19
2023-04-07T01:20:52.862Z,96024.16
2023-04-07T01:21:58.619Z,96020.78
2023-04-07T01:23:08.033Z,96019.03
2023-04-07T01:24:43.012Z,96020.06
2023-04-07T01:26:00.759Z,96020.97
2023-04-07T01:27:24.169Z,96022.66
2023-04-07T01:28:50.709Z,96012.44
2023-04-07T01:29:59.671Z,96019.06
2023-04-07T01:31:03.408Z,96016.47
2023-04-07T01:32:10.290Z,96008.69
2023-04-07T01:33:14.547Z,96012.13
2023-04-07T01:34:20.538Z,96007.16
2023-04-07T01:35:24.334Z,96013.91
2023-04-07T01:36:31.868Z,96007.00
2023-04-07T01:37:34.638Z,96007.03
2023-04-07T01:38:40.948Z,96005.28
2023-04-07T01:39:43.434Z,96006.22
2023-04-07T01:40:50.245Z,96005.28
2023-04-07T01:41:54.189Z,96009.59
2023-04-07T01:43:00.082Z,96007.16
2023-04-07T01:44:03.379Z,96012.22
2023-04-07T01:45:12.353Z,96006.06
2023-04-07T01:46:14.722Z,96008.56
2023-04-07T01:47:20.628Z,96007.59
2023-04-07T01:48:23.199Z,96006.72
2023-04-07T01:49:29.844Z,96008.38
2023-04-07T01:50:32.515Z,96005.56
2023-04-07T01:51:37.680Z,96009.00
2023-04-07T01:52:40.620Z,96004.94
2023-04-07T01:53:45.792Z,95998.00
2023-04-07T01:54:48.680Z,96006.72
2023-04-07T01:55:55.228Z,96008.47
2023-04-07T01:56:57.583Z,95997.50
2023-04-07T01:58:06.731Z,95992.53
2023-04-07T01:59:08.846Z,95997.69
2023-04-07T02:00:17.500Z,96000.25
2023-04-07T02:01:19.779Z,95993.44
2023-04-07T02:02:25.008Z,95997.88
2023-04-07T02:03:32.116Z,95997.88
2023-04-07T02:04:43.313Z,95991.91
2023-04-07T02:05:45.546Z,95995.19
2023-04-07T02:06:54.727Z,95987.47
2023-04-07T02:08:02.826Z,95991.75
2023-04-07T02:09:11.017Z,95990.06
2023-04-07T02:10:16.877Z,95994.28
2023-04-07T02:11:24.737Z,95987.47
2023-04-07T02:12:29.163Z,95979.78
2023-04-07T02:13:35.845Z,95982.97
2023-04-07T02:14:38.770Z,95983.81
2023-04-07T02:15:47.198Z,95979.56
2023-04-07T02:16:50.293Z,95983.88
2023-04-07T02:17:57.564Z,95981.31
2023-04-07T02:18:59.998Z,95982.03
2023-04-07T02:20:05.719Z,95976.09
2023-04-07T02:21:09.095Z,95983.00
2023-04-07T02:22:15.055Z,95978.84
2023-04-07T02:23:17.554Z,95978.75
2023-04-07T02:24:23.629Z,95975.38
2023-04-07T02:25:26.921Z,95971.13
2023-04-07T02:26:35.636Z,95970.22
2023-04-07T02:27:37.725Z,95972.56
2023-04-07T02:28:42.478Z,95967.13
2023-04-07T02:29:44.674Z,95955.13
2023-04-07T02:30:51.995Z,95953.66
2023-04-07T02:31:54.190Z,95964.00
2023-04-07T02:32:59.259Z,95957.19
2023-04-07T02:34:01.531Z,95957.19
2023-04-07T02:35:06.651Z,95962.34
2023-04-07T02:36:08.837Z,95958.00
2023-04-07T02:37:13.588Z,95957.00
2023-04-07T02:38:15.763Z,95958.69
2023-04-07T02:39:20.504Z,95959.66
2023-04-07T02:40:22.564Z,95954.53
2023-04-07T02:41:27.686Z,95958.03
2023-04-07T02:42:29.790Z,95960.75
2023-04-07T02:43:34.506Z,95953.16
2023-04-07T02:44:36.584Z,95956.66
2023-04-07T02:45:41.318Z,95952.34
2023-04-07T02:46:46.177Z,95947.00
2023-04-07T02:47:51.057Z,95953.72
2023-04-07T02:48:53.257Z,95947.63
2023-04-07T02:49:57.982Z,95945.75
2023-04-07T02:51:00.125Z,95949.25
2023-04-07T02:52:04.847Z,95947.50
2023-04-07T02:53:07.127Z,95957.16
2023-04-07T02:54:11.897Z,95952.13
2023-04-07T02:55:14.075Z,95952.84
2023-04-07T02:56:19.297Z,95946.59
2023-04-07T02:57:21.713Z,95948.41
2023-04-07T02:58:26.410Z,95947.56
2023-04-07T02:59:28.642Z,95945.94
2023-04-07T03:00:33.461Z,95946.81
2023-04-07T03:01:36.583Z,95941.88
2023-04-07T03:02:44.149Z,95939.34
2023-04-07T03:03:48.141Z,95934.25
2023-04-07T03:04:54.275Z,95940.31
2023-04-07T03:05:56.358Z,95947.22
2023-04-07T03:07:02.043Z,95932.66
2023-04-07T03:08:04.379Z,95931.69
2023-04-07T03:09:09.802Z,95937.63
2023-04-07T03:10:11.909Z,95933.34
2023-04-07T03:11:16.572Z,95938.97
2023-04-07T03:12:18.658Z,95932.22
2023-04-07T03:13:24.006Z,95930.28
2023-04-07T03:14:26.183Z,95931.13
2023-04-07T03:15:30.828Z,95918.28
2023-04-07T03:16:33.004Z,95919.25
2023-04-07T03:17:38.040Z,95916.34
2023-04-07T03:18:42.801Z,95909.34
2023-04-07T03:19:47.468Z,95917.28
2023-04-07T03:20:49.813Z,95916.59
2023-04-07T03:21:54.497Z,95917.59
2023-04-07T03:22:56.568Z,95922.91
2023-04-07T03:24:01.431Z,95920.31
2023-04-07T03:25:03.717Z,95914.31
2023-04-07T03:26:08.468Z,95921.13
2023-04-07T03:27:10.579Z,95913.59
2023-04-07T03:28:15.223Z,95912.81
2023-04-07T03:29:17.306Z,95916.28
2023-04-07T03:30:22.221Z,95909.50
2023-04-07T03:31:24.288Z,95916.41
2023-04-07T03:32:29.015Z,95916.38
2023-04-07T03:33:31.147Z,95906.75
2023-04-07T03:34:38.372Z,95911.66
2023-04-07T03:35:40.795Z,95908.34
2023-04-07T03:36:45.485Z,95914.31
2023-04-07T03:37:47.556Z,95916.09
2023-04-07T03:38:52.334Z,95909.28
2023-04-07T03:39:54.376Z,95917.75
2023-04-07T03:40:59.034Z,95914.31
2023-04-07T03:42:01.214Z,95917.03
2023-04-07T03:43:06.172Z,95914.44
2023-04-07T03:44:08.253Z,95914.53
2023-04-07T03:45:13.176Z,95907.78
2023-04-07T03:46:15.691Z,95910.41
2023-04-07T03:47:20.484Z,95913.81
2023-04-07T03:48:22.697Z,95912.88
2023-04-07T03:49:27.749Z,95897.50
2023-04-07T03:50:32.387Z,95903.47
2023-04-07T03:51:37.007Z,95906.09
2023-04-07T03:52:39.057Z,95904.41
2023-04-07T03:53:43.711Z,95900.06
2023-04-07T03:54:46.031Z,95901.84
2023-04-07T03:55:50.920Z,95903.66
2023-04-07T03:57:02.507Z,95908.88
2023-04-07T03:58:07.193Z,95909.75
2023-04-07T03:59:09.527Z,95904.59
2023-04-07T04:00:16.294Z,95906.41
2023-04-07T04:01:18.428Z,95906.25
2023-04-07T04:02:23.195Z,95904.50
2023-04-07T04:03:25.559Z,95906.84
2023-04-07T04:04:30.285Z,95894.81
2023-04-07T04:05:34.857Z,95899.97
2023-04-07T04:06:45.545Z,95902.53
2023-04-07T04:07:47.568Z,95899.00
2023-04-07T04:08:52.232Z,95902.28
2023-04-07T04:09:54.310Z,95897.03
2023-04-07T04:10:59.004Z,95901.38
2023-04-07T04:12:01.374Z,95903.88
2023-04-07T04:13:08.176Z,95898.81
2023-04-07T04:14:10.466Z,95897.13
2023-04-07T04:15:15.097Z,95904.84
2023-04-07T04:16:17.178Z,95902.28
2023-04-07T04:17:21.862Z,95908.28
2023-04-07T04:18:24.024Z,95902.28
2023-04-07T04:19:28.691Z,95903.16
2023-04-07T04:20:30.972Z,95904.03
2023-04-07T04:21:38.333Z,95904.03
2023-04-07T04:22:40.356Z,95907.47
2023-04-07T04:23:45.010Z,95910.75
2023-04-07T04:24:47.178Z,95903.00
2023-04-07T04:25:51.947Z,95914.13
2023-04-07T04:26:54.001Z,95907.13
2023-04-07T04:27:58.799Z,95902.00
2023-04-07T04:29:01.000Z,95903.75
2023-04-07T04:30:05.720Z,95909.78
2023-04-07T04:31:07.868Z,95905.44
2023-04-07T04:32:12.565Z,95903.41
2023-04-07T04:33:17.181Z,95906.06
2023-04-07T04:34:19.292Z,95906.09
2023-04-07T04:35:23.926Z,95901.13
2023-04-07T04:36:26.608Z,95907.22
2023-04-07T04:37:33.840Z,95902.19
2023-04-07T04:38:35.904Z,95910.06
2023-04-07T04:39:40.730Z,95904.03
2023-04-07T04:40:42.946Z,95907.59
2023-04-07T04:41:48.405Z,95909.28
2023-04-07T04:42:50.736Z,95906.81
2023-04-07T04:43:55.374Z,95907.69
2023-04-07T04:44:57.982Z,95911.06
2023-04-07T04:46:02.664Z,95907.69
2023-04-07T04:47:04.885Z,95909.38
2023-04-07T04:48:11.172Z,95903.34
2023-04-07T04:49:13.283Z,95901.69
2023-04-07T04:50:17.908Z,95902.53
2023-04-07T04:51:20.028Z,95905.06
2023-04-07T04:52:24.723Z,95904.25
2023-04-07T04:53:29.348Z,95905.19
2023-04-07T04:54:34.031Z,95902.63
2023-04-07T04:55:36.309Z,95904.28
2023-04-07T04:56:40.980Z,95904.34
2023-04-07T04:57:43.044Z,95907.69
2023-04-07T04:58:48.005Z,95902.44
2023-04-07T04:59:50.084Z,95903.22
2023-04-07T05:00:58.447Z,95903.09
2023-04-07T05:02:00.767Z,95901.38
2023-04-07T05:03:05.771Z,95903.94
2023-04-07T05:04:09.736Z,95898.81
2023-04-07T05:05:15.070Z,95892.88
2023-04-07T05:06:17.272Z,95892.78
2023-04-07T05:07:21.914Z,95893.56
2023-04-07T05:08:23.943Z,95894.47
2023-04-07T05:09:31.305Z,95890.19
2023-04-07T05:10:35.989Z,95896.13
2023-04-07T05:11:38.070Z,95895.22
2023-04-07T05:12:42.715Z,95892.66
2023-04-07T05:13:44.823Z,95891.78
2023-04-07T05:14:49.513Z,95890.91
2023-04-07T05:15:51.861Z,95893.31
2023-04-07T05:16:57.046Z,95886.44
2023-04-07T05:17:59.236Z,95893.25
2023-04-07T05:19:03.982Z,95882.13
2023-04-07T05:20:09.668Z,95884.69
2023-04-07T05:21:14.344Z,95890.66
2023-04-07T05:22:16.646Z,95881.22
2023-04-07T05:23:21.276Z,95887.09
2023-04-07T05:24:23.306Z,95884.47
2023-04-07T05:25:30.670Z,95885.41
2023-04-07T05:26:32.814Z,95882.69
2023-04-07T05:27:37.445Z,95881.06
2023-04-07T05:28:39.510Z,95879.38
2023-04-07T05:29:44.178Z,95879.34
2023-04-07T05:30:48.838Z,95881.84
2023-04-07T05:31:51.035Z,95884.38
2023-04-07T05:32:56.638Z,95882.59
2023-04-07T05:33:58.797Z,95877.56
2023-04-07T05:35:03.425Z,95875.88
2023-04-07T05:36:06.483Z,95876.69
2023-04-07T05:37:11.211Z,95877.56
2023-04-07T05:38:13.706Z,95880.06
2023-04-07T05:39:18.359Z,95880.91
2023-04-07T05:40:20.616Z,95880.75
2023-04-07T05:41:27.920Z,95877.25
2023-04-07T05:42:30.069Z,95884.06
2023-04-07T05:43:34.779Z,95885.69
2023-04-07T05:44:36.864Z,95891.63
2023-04-07T05:45:41.595Z,95883.13
2023-04-07T05:46:43.698Z,95884.91
2023-04-07T05:47:50.290Z,95892.47
2023-04-07T05:48:52.337Z,95889.91
2023-04-07T05:49:57.075Z,95890.69
2023-04-07T05:50:59.179Z,95889.78
2023-04-07T05:52:03.866Z,95891.56
2023-04-07T05:53:05.972Z,95890.72
2023-04-07T05:54:10.862Z,95893.19
2023-04-07T05:55:15.808Z,95890.59
2023-04-07T05:56:17.847Z,95895.63
2023-04-07T05:57:27.675Z,95895.63
2023-04-07T05:58:29.730Z,95895.47
2023-04-07T05:59:34.414Z,95895.41
2023-04-07T06:00:36.465Z,95898.66
2023-04-07T06:01:42.082Z,95893.41
2023-04-07T06:02:44.271Z,95901.94
2023-04-07T06:03:49.247Z,95897.66
2023-04-07T06:04:51.707Z,95896.78
2023-04-07T06:05:56.402Z,95898.34
2023-04-07T06:06:58.569Z,95892.16
2023-04-07T06:08:03.189Z,95893.06
2023-04-07T06:09:06.890Z,95892.00
2023-04-07T06:10:12.470Z,95896.31
2023-04-07T06:11:14.576Z,95890.34
2023-04-07T06:12:19.254Z,95895.41
2023-04-07T06:13:23.922Z,95892.78
2023-04-07T06:14:28.877Z,95895.38
2023-04-07T06:15:30.972Z,95894.47
2023-04-07T06:16:35.949Z,95890.91
2023-04-07T06:17:38.136Z,95885.75
2023-04-07T06:18:42.919Z,95895.06
2023-04-07T06:19:44.931Z,95896.59
2023-04-07T06:20:49.613Z,95892.25
2023-04-07T06:21:51.657Z,95895.72
2023-04-07T06:22:56.457Z,95895.72
2023-04-07T06:23:58.498Z,95898.09
2023-04-07T06:25:03.190Z,95898.03
2023-04-07T06:26:05.740Z,95897.97
2023-04-07T06:27:10.525Z,95898.75
2023-04-07T06:28:12.731Z,95894.41
2023-04-07T06:29:20.013Z,95905.56
2023-04-07T06:30:22.035Z,95898.53
2023-04-07T06:31:27.208Z,95898.53
2023-04-07T06:32:29.316Z,95892.53
2023-04-07T06:33:33.979Z,95896.78
2023-04-07T06:34:36.464Z,95900.03
2023-04-07T06:35:42.781Z,95900.00
2023-04-07T06:36:47.558Z,95890.53
2023-04-07T06:37:49.709Z,95898.13
2023-04-07T06:38:54.352Z,95898.03
2023-04-07T06:39:56.562Z,95903.13
2023-04-07T06:41:01.331Z,95899.66
2023-04-07T06:42:03.363Z,95894.38
2023-04-07T06:43:07.999Z,95895.94
2023-04-07T06:44:13.042Z,95892.38
2023-04-07T06:45:17.709Z,95893.91
2023-04-07T06:46:23.213Z,95895.53
2023-04-07T06:47:25.416Z,95894.53
2023-04-07T06:48:30.312Z,95892.69
2023-04-07T06:49:37.052Z,95889.16
2023-04-07T06:50:41.877Z,95892.31
2023-04-07T06:51:43.960Z,95891.31
2023-04-07T06:52:48.573Z,95889.41
2023-04-07T06:53:50.767Z,95892.63
2023-04-07T06:54:55.422Z,95891.63
2023-04-07T06:56:04.282Z,95893.19
2023-04-07T06:57:12.285Z,95891.63
2023-04-07T06:58:16.956Z,95897.56
2023-04-07T06:59:21.724Z,95895.75
2023-04-07T07:00:31.047Z,95893.91
2023-04-07T07:01:33.485Z,95893.91
2023-04-07T07:02:38.366Z,95898.13
2023-04-07T07:03:40.715Z,95903.16
2023-04-07T07:04:45.467Z,95898.69
2023-04-07T07:05:48.994Z,95895.16
2023-04-07T07:06:56.211Z,95899.25
2023-04-07T07:07:58.421Z,95903.44
2023-04-07T07:09:03.597Z,95895.56
2023-04-07T07:10:07.068Z,95898.06
2023-04-07T07:11:12.084Z,95896.38
2023-04-07T07:13:52.351Z,95898.56
2023-04-07T07:14:54.399Z,95895.03
2023-04-07T07:16:01.664Z,95900.88
2023-04-07T07:17:03.797Z,95891.22
2023-04-07T07:18:08.553Z,95898.72
2023-04-07T07:19:10.594Z,95890.63
2023-04-07T07:20:15.487Z,95896.44
2023-04-07T07:21:18.945Z,95894.22
2023-04-07T07:22:23.709Z,95892.16
2023-04-07T07:23:28.397Z,95887.53
2023-04-07T07:24:34.264Z,95892.22
2023-04-07T07:25:36.455Z,95891.00
2023-04-07T07:26:43.470Z,95890.56
2023-04-07T07:27:46.266Z,95892.63
2023-04-07T07:28:50.902Z,95887.97
2023-04-07T07:29:55.536Z,95891.00
2023-04-07T07:31:04.620Z,95894.09
2023-04-07T07:32:06.710Z,95890.03
2023-04-07T07:33:11.516Z,95888.94
2023-04-07T07:34:13.609Z,95893.22
2023-04-07T07:35:18.610Z,95891.84
2023-04-07T07:36:23.460Z,95887.31
2023-04-07T07:37:25.796Z,95884.44
2023-04-07T07:40:10.416Z,95885.72
2023-04-07T07:41:12.520Z,95881.47
2023-04-07T07:42:17.199Z,95890.44
2023-04-07T07:43:19.342Z,95886.81
2023-04-07T07:44:24.068Z,95883.88
2023-04-07T07:45:26.249Z,95888.59
2023-04-07T07:46:33.525Z,95894.16
2023-04-07T07:47:38.715Z,95887.69
2023-04-07T07:48:40.733Z,95885.66
2023-04-07T07:49:45.497Z,95877.44
2023-04-07T07:50:48.550Z,95889.00
2023-04-07T07:51:53.306Z,95887.72
2023-04-07T07:52:57.973Z,95888.00
2023-04-07T07:54:02.680Z,95888.31
2023-04-07T07:55:05.590Z,95890.81
2023-04-07T07:56:10.220Z,95881.00
2023-04-07T07:57:14.859Z,95888.41
2023-04-07T07:58:16.931Z,95893.47
2023-04-07T07:59:21.711Z,95887.75
2023-04-07T08:00:24.241Z,95894.91
2023-04-07T08:01:28.954Z,95894.28
2023-04-07T08:02:34.181Z,95889.22
2023-04-07T08:03:39.199Z,95893.00
2023-04-07T08:04:41.807Z,95882.66
2023-04-07T08:05:46.790Z,95881.06
2023-04-07T08:06:51.841Z,95890.69
2023-04-07T08:07:55.572Z,95887.47
2023-04-07T08:09:00.765Z,95875.78
2023-04-07T08:10:02.875Z,95876.34
2023-04-07T08:11:07.667Z,95883.63
2023-04-07T08:12:09.682Z,95883.84
2023-04-07T08:13:14.358Z,95880.72
2023-04-07T08:14:16.658Z,95884.47
2023-04-07T08:15:21.503Z,95888.91
2023-04-07T08:16:27.110Z,95887.34
2023-04-07T08:17:29.225Z,95879.06
2023-04-07T08:18:36.491Z,95878.63
2023-04-07T08:19:40.686Z,95889.69
2023-04-07T08:20:45.272Z,95882.16
2023-04-07T08:21:47.302Z,95877.09
2023-04-07T08:22:52.019Z,95882.53
2023-04-07T08:23:54.451Z,95880.97
2023-04-07T08:24:59.294Z,95882.91
2023-04-07T08:26:04.043Z,95888.56
2023-04-07T08:27:06.201Z,95885.53
2023-04-07T08:28:10.906Z,95885.53
2023-04-07T08:29:13.107Z,95893.31
2023-04-07T08:30:17.917Z,95891.69
2023-04-07T08:31:20.165Z,95884.31
2023-04-07T08:32:24.805Z,95893.41
2023-04-07T08:33:26.918Z,95894.06
2023-04-07T08:34:34.235Z,95887.00
2023-04-07T08:35:39.051Z,95880.22
2023-04-07T08:36:43.537Z,95889.97
2023-04-07T08:37:49.735Z,95883.38
2023-04-07T08:38:51.783Z,95885.00
2023-04-07T08:39:56.372Z,95886.28
2023-04-07T08:41:03.806Z,95887.19
2023-04-07T08:42:10.344Z,95882.16
2023-04-07T08:43:18.183Z,95887.72
2023-04-07T08:44:23.270Z,95888.47
2023-04-07T08:45:29.252Z,95881.72
2023-04-07T08:46:36.057Z,95878.72
2023-04-07T08:47:38.548Z,95883.28
2023-04-07T08:48:47.130Z,95883.72
2023-04-07T08:49:55.969Z,95886.72
2023-04-07T08:51:01.201Z,95882.38
2023-04-07T08:52:09.116Z,95879.06
2023-04-07T08:53:17.090Z,95876.19
2023-04-07T08:54:22.792Z,95875.53
2023-04-07T08:55:26.531Z,95874.88
2023-04-07T08:56:31.550Z,95875.72
2023-04-07T08:57:34.478Z,95883.25
2023-04-07T08:58:39.523Z,95875.94
2023-04-07T08:59:44.828Z,95873.84
2023-04-07T09:00:50.310Z,95867.94
2023-04-07T09:01:53.031Z,95878.53
2023-04-07T09:02:58.637Z,95876.66
2023-04-07T09:04:03.085Z,95875.59
2023-04-07T09:05:11.781Z,95873.91
2023-04-07T09:06:14.572Z,95878.25
2023-04-07T09:07:19.229Z,95876.03
2023-04-07T09:08:23.844Z,95869.72
2023-04-07T09:09:25.865Z,95877.34
2023-04-07T09:10:30.516Z,95873.91
2023-04-07T09:11:40.812Z,95875.94
2023-04-07T09:12:45.754Z,95876.63
2023-04-07T09:13:48.022Z,95886.88
2023-04-07T09:15:17.081Z,95882.06
2023-04-07T09:18:07.511Z,95896.75
2023-04-07T09:19:09.550Z,95889.97
2023-04-07T09:20:16.943Z,95899.44
2023-04-07T09:21:21.603Z,95889.91
2023-04-07T09:22:37.515Z,95885.94
2023-04-07T09:23:44.076Z,95891.00
2023-04-07T09:24:46.307Z,95896.69
2023-04-07T09:25:50.981Z,95894.47
2023-04-07T09:27:13.988Z,95895.97
2023-04-07T09:28:20.030Z,95886.47
2023-04-07T09:29:24.635Z,95891.41
2023-04-07T09:30:27.861Z,95892.69
2023-04-07T09:31:48.452Z,95893.97
2023-04-07T09:32:50.820Z,95890.44
2023-04-07T09:33:55.754Z,95893.16
2023-04-07T09:34:59.612Z,95890.03
2023-04-07T09:36:08.128Z,95894.06
2023-04-07T09:37:25.284Z,95897.91
2023-04-07T09:38:36.599Z,95899.94
2023-04-07T09:39:52.780Z,95902.09
2023-04-07T09:41:09.183Z,95911.06
2023-04-07T09:42:13.981Z,95912.44
2023-04-07T09:43:20.193Z,95907.66
2023-04-07T09:44:23.391Z,95907.13
2023-04-07T09:46:36.806Z,95909.41
2023-04-07T09:47:41.799Z,95907.84
2023-04-07T09:48:48.749Z,95901.81
2023-04-07T09:50:23.600Z,95904.63
2023-04-07T09:51:31.038Z,95907.13
2023-04-07T09:52:54.110Z,95904.63
2023-04-07T09:53:56.178Z,95905.78
2023-04-07T09:55:01.716Z,95911.09
2023-04-07T09:56:04.729Z,95908.06
2023-04-07T09:57:11.505Z,95911.81
2023-04-07T09:58:17.174Z,95907.34
2023-04-07T09:59:23.262Z,95909.75
2023-04-07T10:00:25.695Z,95916.19
2023-04-07T10:01:30.485Z,95913.47
2023-04-07T10:02:33.042Z,95912.22
2023-04-07T10:03:37.964Z,95910.53
2023-04-07T10:04:44.021Z,95911.69
2023-04-07T10:05:47.070Z,95916.56
2023-04-07T10:06:55.533Z,95916.66
2023-04-07T10:07:57.748Z,95910.63
2023-04-07T10:09:02.504Z,95910.69
2023-04-07T10:10:05.284Z,95910.38
2023-04-07T10:11:10.143Z,95910.16
2023-04-07T10:12:13.893Z,95914.47
2023-04-07T10:13:18.842Z,95906.53
2023-04-07T10:14:25.854Z,95913.31
2023-04-07T10:15:27.968Z,95911.78
2023-04-07T10:16:33.202Z,95911.56
2023-04-07T10:17:36.846Z,95910.13
2023-04-07T10:18:42.774Z,95908.06
2023-04-07T10:19:46.111Z,95905.56
2023-04-07T10:20:52.595Z,95909.66
2023-04-07T10:22:00.524Z,95906.41
2023-04-07T10:23:09.850Z,95904.63
2023-04-07T10:24:25.911Z,95906.72
2023-04-07T10:25:30.978Z,95907.16
2023-04-07T10:26:35.802Z,95916.00
2023-04-07T10:27:50.398Z,95910.56
2023-04-07T10:29:02.488Z,95905.50
2023-04-07T10:30:12.898Z,95911.56
2023-04-07T10:31:18.029Z,95904.25
2023-04-07T10:32:28.909Z,95916.78
2023-04-07T10:33:52.451Z,95912.03
2023-04-07T10:35:03.956Z,95906.88
2023-04-07T10:36:07.872Z,95902.97
2023-04-07T10:37:18.053Z,95903.50
2023-04-07T10:38:22.957Z,95904.38
2023-04-07T10:39:27.747Z,95903.13
2023-04-07T10:40:31.494Z,95909.38
2023-04-07T10:41:37.895Z,95903.38
2023-04-07T10:42:47.206Z,95904.16
2023-04-07T10:43:51.867Z,95907.19
2023-04-07T10:44:57.169Z,95902.91
2023-04-07T10:46:02.408Z,95906.13
2023-04-07T10:47:05.388Z,95898.06
2023-04-07T10:48:14.508Z,95896.09
2023-04-07T10:49:18.638Z,95904.25
2023-04-07T10:50:26.764Z,95899.00
2023-04-07T10:51:31.418Z,95910.19
2023-04-07T10:52:36.224Z,95903.31
2023-04-07T10:53:41.170Z,95908.59
2023-04-07T10:54:43.273Z,95902.56
2023-04-07T10:55:48.569Z,95900.66
2023-04-07T10:57:11.120Z,95898.44
2023-04-07T10:58:29.143Z,95893.38
2023-04-07T10:59:31.666Z,95894.66
2023-04-07T11:00:36.320Z,95893.50
2023-04-07T11:01:38.458Z,95889.28
2023-04-07T11:02:43.576Z,95894.34
2023-04-07T11:04:00.343Z,95890.81
2023-04-07T11:05:06.067Z,95888.78
2023-04-07T11:06:09.621Z,95894.41
2023-04-07T11:07:14.839Z,95890.03
2023-04-07T11:08:35.695Z,95892.72
2023-04-07T11:09:40.622Z,95898.69
2023-04-07T11:10:48.222Z,95899.13
2023-04-07T11:11:53.679Z,95892.44
2023-04-07T11:13:07.133Z,95896.09
2023-04-07T11:14:11.902Z,95895.25
2023-04-07T11:15:18.200Z,95888.94
2023-04-07T11:16:37.263Z,95890.31
2023-04-07T11:17:39.301Z,95893.63
2023-04-07T11:18:44.235Z,95891.13
2023-04-07T11:19:52.695Z,95896.06
2023-04-07T11:20:58.862Z,95893.09
2023-04-07T11:22:28.718Z,95898.63
2023-04-07T11:23:41.865Z,95895.75
2023-04-07T11:24:43.641Z,95901.91
2023-04-07T11:25:50.061Z,95895.25
2023-04-07T11:26:54.682Z,95897.91
2023-04-07T11:27:57.927Z,95899.06
2023-04-07T11:29:02.687Z,95908.88
2023-04-07T11:30:08.967Z,95900.16
2023-04-07T11:31:14.611Z,95903.28
2023-04-07T11:32:19.465Z,95913.16
2023-04-07T11:33:25.876Z,95911.72
2023-04-07T11:34:33.429Z,95917.44
2023-04-07T11:35:36.055Z,95912.81
2023-04-07T11:36:43.293Z,95910.91
2023-04-07T11:37:45.888Z,95911.94
2023-04-07T11:38:53.129Z,95911.13
2023-04-07T11:39:56.242Z,95911.53
2023-04-07T11:41:00.885Z,95912.19
2023-04-07T11:42:03.078Z,95905.06
2023-04-07T11:43:18.953Z,95903.50
2023-04-07T11:44:21.116Z,95908.75
2023-04-07T11:45:26.049Z,95903.28
2023-04-07T11:46:30.716Z,95909.69
2023-04-07T11:47:38.747Z,95905.09
2023-04-07T11:48:44.951Z,95898.84
2023-04-07T11:49:47.307Z,95896.44
2023-04-07T11:50:51.922Z,95901.06
2023-04-07T11:52:02.145Z,95902.25
2023-04-07T11:53:25.204Z,95900.28
2023-04-07T11:54:42.776Z,95896.88
2023-04-07T11:55:44.901Z,95905.78
2023-04-07T11:56:52.046Z,95898.94
2023-04-07T11:57:54.471Z,95897.19
2023-04-07T11:58:59.347Z,95903.63
2023-04-07T12:00:08.829Z,95894.44
2023-04-07T12:01:14.177Z,95894.03
2023-04-07T12:02:34.582Z,95892.59
2023-04-07T12:03:38.447Z,95904.09
2023-04-07T12:05:00.600Z,95890.94
2023-04-07T12:06:03.626Z,95889.00
2023-04-07T12:07:12.305Z,95890.50
2023-04-07T12:08:15.082Z,95896.19
2023-04-07T12:09:36.080Z,95897.56
2023-04-07T12:10:40.653Z,95892.16
2023-04-07T12:11:52.690Z,95894.22
2023-04-07T12:12:59.301Z,95902.66
2023-04-07T12:14:05.403Z,95894.66
2023-04-07T12:15:11.020Z,95896.72
2023-04-07T12:16:13.084Z,95888.38
2023-04-07T12:17:23.675Z,95897.25
2023-04-07T12:18:26.015Z,95894.03
2023-04-07T12:19:32.919Z,95890.22
2023-04-07T12:20:37.952Z,95884.53
2023-04-07T12:21:40.174Z,95892.44
2023-04-07T12:24:37.828Z,95884.69
2023-04-07T12:25:40.074Z,95885.53
2023-04-07T12:26:44.698Z,95883.72
2023-04-07T12:27:47.001Z,95883.56
2023-04-07T12:28:51.629Z,95896.16
2023-04-07T12:29:53.672Z,95887.63
2023-04-07T12:30:59.028Z,95887.16
2023-04-07T12:32:01.110Z,95890.78
2023-04-07T12:33:06.252Z,95894.94
2023-04-07T12:34:08.372Z,95888.72
2023-04-07T12:35:13.022Z,95889.06
2023-04-07T12:36:17.660Z,95892.22
2023-04-07T12:37:19.755Z,95885.53
2023-04-07T12:38:24.450Z,95892.75
2023-04-07T12:39:26.644Z,95886.91
2023-04-07T12:40:34.785Z,95887.03
2023-04-07T12:41:38.788Z,95883.97
2023-04-07T12:42:43.423Z,95881.72
2023-04-07T12:43:48.421Z,95875.66
2023-04-07T12:44:50.712Z,95863.56
2023-04-07T12:45:55.353Z,95872.91
2023-04-07T12:46:57.455Z,95872.19
2023-04-07T12:48:02.242Z,95867.16
2023-04-07T12:49:04.385Z,95868.69
2023-04-07T12:50:10.053Z,95871.50
2023-04-07T12:51:14.732Z,95875.09
2023-04-07T12:52:17.033Z,95880.06
2023-04-07T12:53:21.703Z,95880.91
2023-04-07T12:54:24.261Z,95879.94
2023-04-07T12:55:29.026Z,95880.63
2023-04-07T12:56:36.486Z,95879.75
2023-04-07T12:57:38.904Z,95879.75
2023-04-07T12:58:44.007Z,95880.03